sensor_id;sensor_type;location;lat;lon;timestamp;P1;durP1;ratioP1;P2;durP2;ratioP2
21386;SDS011;10854;45.922;6.716;2023-07-29T00:02:26;7.57;;;4.47;;
21386;SDS011;10854;45.922;6.716;2023-07-29T00:04:57;4.83;;;4.33;;
21386;SDS011;10854;45.922;6.716;2023-07-29T00:07:25;4.53;;;4.10;;
21386;SDS011;10854;45.922;6.716;2023-07-29T00:09:54;5.23;;;4.33;;
21386;SDS011;10854;45.922;6.716;2023-07-29T00:12:22;5.83;;;4.43;;
21386;SDS011;10854;45.922;6.716;2023-07-29T00:14:50;4.83;;;4.03;;
21386;SDS011;10854;45.922;6.716;2023-07-29T00:17:19;5.63;;;4.30;;
21386;SDS011;10854;45.922;6.716;2023-07-29T00:19:48;7.00;;;4.37;;
21386;SDS011;10854;45.922;6.716;2023-07-29T00:22:16;4.37;;;3.97;;
21386;SDS011;10854;45.922;6.716;2023-07-29T00:24:45;5.90;;;4.47;;
21386;SDS011;10854;45.922;6.716;2023-07-29T00:27:22;5.23;;;4.47;;
21386;SDS011;10854;45.922;6.716;2023-07-29T00:29:51;6.37;;;4.53;;
21386;SDS011;10854;45.922;6.716;2023-07-29T00:32:20;6.10;;;4.63;;
21386;SDS011;10854;45.922;6.716;2023-07-29T00:34:48;5.90;;;4.23;;
21386;SDS011;10854;45.922;6.716;2023-07-29T00:37:17;6.97;;;4.57;;
21386;SDS011;10854;45.922;6.716;2023-07-29T00:39:45;7.20;;;4.67;;
21386;SDS011;10854;45.922;6.716;2023-07-29T00:42:14;6.80;;;4.23;;
21386;SDS011;10854;45.922;6.716;2023-07-29T00:44:42;4.80;;;4.23;;
21386;SDS011;10854;45.922;6.716;2023-07-29T00:47:11;5.93;;;4.40;;
21386;SDS011;10854;45.922;6.716;2023-07-29T00:49:43;5.83;;;4.47;;
21386;SDS011;10854;45.922;6.716;2023-07-29T00:52:12;6.87;;;4.53;;
21386;SDS011;10854;45.922;6.716;2023-07-29T00:54:42;20.13;;;5.40;;
21386;SDS011;10854;45.922;6.716;2023-07-29T00:57:10;10.50;;;4.63;;
21386;SDS011;10854;45.922;6.716;2023-07-29T00:59:42;4.97;;;4.47;;
21386;SDS011;10854;45.922;6.716;2023-07-29T01:02:10;5.43;;;4.90;;
21386;SDS011;10854;45.922;6.716;2023-07-29T01:04:40;5.27;;;4.70;;
21386;SDS011;10854;45.922;6.716;2023-07-29T01:07:15;5.33;;;4.83;;
21386;SDS011;10854;45.922;6.716;2023-07-29T01:10:07;5.20;;;4.67;;
21386;SDS011;10854;45.922;6.716;2023-07-29T01:12:49;10.50;;;8.03;;
21386;SDS011;10854;45.922;6.716;2023-07-29T01:18:28;10.63;;;6.20;;
21386;SDS011;10854;45.922;6.716;2023-07-29T01:21:03;6.83;;;5.03;;
21386;SDS011;10854;45.922;6.716;2023-07-29T01:23:35;11.00;;;5.60;;
21386;SDS011;10854;45.922;6.716;2023-07-29T01:26:03;5.80;;;4.97;;
21386;SDS011;10854;45.922;6.716;2023-07-29T01:28:32;6.47;;;5.30;;
21386;SDS011;10854;45.922;6.716;2023-07-29T01:31:46;7.17;;;4.73;;
21386;SDS011;10854;45.922;6.716;2023-07-29T01:34:22;5.40;;;4.70;;
21386;SDS011;10854;45.922;6.716;2023-07-29T01:37:02;6.87;;;4.43;;
21386;SDS011;10854;45.922;6.716;2023-07-29T01:39:36;6.30;;;5.20;;
21386;SDS011;10854;45.922;6.716;2023-07-29T01:42:05;6.13;;;5.17;;
21386;SDS011;10854;45.922;6.716;2023-07-29T01:44:34;6.03;;;5.43;;
21386;SDS011;10854;45.922;6.716;2023-07-29T01:47:04;6.73;;;5.10;;
21386;SDS011;10854;45.922;6.716;2023-07-29T01:49:32;5.43;;;4.60;;
21386;SDS011;10854;45.922;6.716;2023-07-29T01:52:00;5.77;;;4.70;;
21386;SDS011;10854;45.922;6.716;2023-07-29T01:54:29;7.87;;;4.90;;
21386;SDS011;10854;45.922;6.716;2023-07-29T01:56:57;5.87;;;4.30;;
21386;SDS011;10854;45.922;6.716;2023-07-29T01:59:26;5.47;;;4.60;;
21386;SDS011;10854;45.922;6.716;2023-07-29T02:01:54;5.67;;;4.67;;
21386;SDS011;10854;45.922;6.716;2023-07-29T02:04:22;6.43;;;5.10;;
21386;SDS011;10854;45.922;6.716;2023-07-29T02:06:51;6.83;;;4.60;;
21386;SDS011;10854;45.922;6.716;2023-07-29T02:09:19;6.37;;;4.63;;
21386;SDS011;10854;45.922;6.716;2023-07-29T02:11:48;8.47;;;4.77;;
21386;SDS011;10854;45.922;6.716;2023-07-29T02:14:16;7.07;;;5.00;;
21386;SDS011;10854;45.922;6.716;2023-07-29T02:16:44;6.87;;;4.90;;
21386;SDS011;10854;45.922;6.716;2023-07-29T02:19:13;8.87;;;4.83;;
21386;SDS011;10854;45.922;6.716;2023-07-29T02:21:42;5.53;;;4.93;;
21386;SDS011;10854;45.922;6.716;2023-07-29T02:24:10;8.00;;;5.03;;
21386;SDS011;10854;45.922;6.716;2023-07-29T02:26:38;17.37;;;12.73;;
21386;SDS011;10854;45.922;6.716;2023-07-29T02:29:07;11.00;;;8.40;;
21386;SDS011;10854;45.922;6.716;2023-07-29T02:31:35;8.63;;;5.50;;
21386;SDS011;10854;45.922;6.716;2023-07-29T02:34:05;6.80;;;4.67;;
21386;SDS011;10854;45.922;6.716;2023-07-29T02:36:33;8.03;;;4.97;;
21386;SDS011;10854;45.922;6.716;2023-07-29T02:39:02;5.83;;;5.07;;
21386;SDS011;10854;45.922;6.716;2023-07-29T02:41:30;5.57;;;4.67;;
21386;SDS011;10854;45.922;6.716;2023-07-29T02:43:58;7.37;;;4.80;;
21386;SDS011;10854;45.922;6.716;2023-07-29T02:46:27;7.57;;;4.80;;
21386;SDS011;10854;45.922;6.716;2023-07-29T02:48:57;7.57;;;4.50;;
21386;SDS011;10854;45.922;6.716;2023-07-29T02:51:25;8.03;;;5.00;;
21386;SDS011;10854;45.922;6.716;2023-07-29T02:53:53;6.07;;;5.27;;
21386;SDS011;10854;45.922;6.716;2023-07-29T02:56:22;4.70;;;4.20;;
21386;SDS011;10854;45.922;6.716;2023-07-29T02:58:50;5.80;;;4.77;;
21386;SDS011;10854;45.922;6.716;2023-07-29T03:01:19;5.77;;;4.67;;
21386;SDS011;10854;45.922;6.716;2023-07-29T03:03:48;5.97;;;4.60;;
21386;SDS011;10854;45.922;6.716;2023-07-29T03:06:17;6.73;;;4.63;;
21386;SDS011;10854;45.922;6.716;2023-07-29T03:08:46;9.33;;;5.17;;
21386;SDS011;10854;45.922;6.716;2023-07-29T03:11:15;5.70;;;5.17;;
21386;SDS011;10854;45.922;6.716;2023-07-29T03:13:45;6.73;;;5.13;;
21386;SDS011;10854;45.922;6.716;2023-07-29T03:16:14;5.57;;;4.97;;
21386;SDS011;10854;45.922;6.716;2023-07-29T03:18:43;5.57;;;4.93;;
21386;SDS011;10854;45.922;6.716;2023-07-29T03:21:12;6.47;;;4.73;;
21386;SDS011;10854;45.922;6.716;2023-07-29T03:23:41;5.80;;;5.00;;
21386;SDS011;10854;45.922;6.716;2023-07-29T03:26:09;7.30;;;5.60;;
21386;SDS011;10854;45.922;6.716;2023-07-29T03:28:40;6.50;;;4.80;;
21386;SDS011;10854;45.922;6.716;2023-07-29T03:31:10;8.20;;;5.23;;
21386;SDS011;10854;45.922;6.716;2023-07-29T03:33:39;6.43;;;5.37;;
21386;SDS011;10854;45.922;6.716;2023-07-29T03:36:07;5.67;;;5.17;;
21386;SDS011;10854;45.922;6.716;2023-07-29T03:38:36;6.83;;;5.60;;
21386;SDS011;10854;45.922;6.716;2023-07-29T03:41:07;8.57;;;5.60;;
21386;SDS011;10854;45.922;6.716;2023-07-29T03:43:36;6.90;;;5.20;;
21386;SDS011;10854;45.922;6.716;2023-07-29T03:46:04;6.50;;;5.17;;
21386;SDS011;10854;45.922;6.716;2023-07-29T03:48:34;6.20;;;5.00;;
21386;SDS011;10854;45.922;6.716;2023-07-29T03:51:02;5.77;;;5.00;;
21386;SDS011;10854;45.922;6.716;2023-07-29T03:53:31;5.63;;;4.70;;
21386;SDS011;10854;45.922;6.716;2023-07-29T03:55:59;6.70;;;5.20;;
21386;SDS011;10854;45.922;6.716;2023-07-29T03:58:28;9.00;;;5.77;;
21386;SDS011;10854;45.922;6.716;2023-07-29T04:00:56;6.30;;;5.50;;
21386;SDS011;10854;45.922;6.716;2023-07-29T04:03:25;11.10;;;5.93;;
21386;SDS011;10854;45.922;6.716;2023-07-29T04:05:54;17.00;;;5.93;;
21386;SDS011;10854;45.922;6.716;2023-07-29T04:08:22;11.97;;;6.07;;
21386;SDS011;10854;45.922;6.716;2023-07-29T04:10:51;8.60;;;5.40;;
21386;SDS011;10854;45.922;6.716;2023-07-29T04:13:19;6.90;;;5.03;;
21386;SDS011;10854;45.922;6.716;2023-07-29T04:15:48;7.13;;;5.13;;
21386;SDS011;10854;45.922;6.716;2023-07-29T04:18:17;8.43;;;5.60;;
21386;SDS011;10854;45.922;6.716;2023-07-29T04:20:45;6.63;;;5.27;;
21386;SDS011;10854;45.922;6.716;2023-07-29T04:23:14;7.33;;;5.40;;
21386;SDS011;10854;45.922;6.716;2023-07-29T04:25:42;9.20;;;5.03;;
21386;SDS011;10854;45.922;6.716;2023-07-29T04:28:10;7.03;;;5.60;;
21386;SDS011;10854;45.922;6.716;2023-07-29T04:30:39;7.33;;;5.27;;
21386;SDS011;10854;45.922;6.716;2023-07-29T04:33:07;7.13;;;5.63;;
21386;SDS011;10854;45.922;6.716;2023-07-29T04:35:36;6.27;;;5.13;;
21386;SDS011;10854;45.922;6.716;2023-07-29T04:38:04;5.87;;;5.03;;
21386;SDS011;10854;45.922;6.716;2023-07-29T04:40:33;6.33;;;4.87;;
21386;SDS011;10854;45.922;6.716;2023-07-29T04:43:01;6.43;;;5.33;;
21386;SDS011;10854;45.922;6.716;2023-07-29T04:45:30;8.37;;;5.53;;
21386;SDS011;10854;45.922;6.716;2023-07-29T04:47:59;6.37;;;5.57;;
21386;SDS011;10854;45.922;6.716;2023-07-29T04:50:27;7.60;;;5.13;;
21386;SDS011;10854;45.922;6.716;2023-07-29T04:52:55;6.37;;;5.47;;
21386;SDS011;10854;45.922;6.716;2023-07-29T04:55:24;8.30;;;5.13;;
21386;SDS011;10854;45.922;6.716;2023-07-29T04:57:52;6.40;;;5.23;;
21386;SDS011;10854;45.922;6.716;2023-07-29T05:00:22;7.40;;;5.47;;
21386;SDS011;10854;45.922;6.716;2023-07-29T05:02:51;7.07;;;5.00;;
21386;SDS011;10854;45.922;6.716;2023-07-29T05:05:20;8.03;;;5.77;;
21386;SDS011;10854;45.922;6.716;2023-07-29T05:07:48;8.93;;;5.90;;
21386;SDS011;10854;45.922;6.716;2023-07-29T05:10:16;6.77;;;5.10;;
21386;SDS011;10854;45.922;6.716;2023-07-29T05:12:45;6.80;;;5.63;;
21386;SDS011;10854;45.922;6.716;2023-07-29T05:15:13;8.50;;;5.87;;
21386;SDS011;10854;45.922;6.716;2023-07-29T05:17:43;7.70;;;5.80;;
21386;SDS011;10854;45.922;6.716;2023-07-29T05:20:12;7.60;;;5.47;;
21386;SDS011;10854;45.922;6.716;2023-07-29T05:22:42;9.93;;;5.27;;
21386;SDS011;10854;45.922;6.716;2023-07-29T05:25:11;8.97;;;5.70;;
21386;SDS011;10854;45.922;6.716;2023-07-29T05:27:39;10.90;;;5.43;;
21386;SDS011;10854;45.922;6.716;2023-07-29T05:30:08;11.10;;;5.67;;
21386;SDS011;10854;45.922;6.716;2023-07-29T05:32:37;12.17;;;5.90;;
21386;SDS011;10854;45.922;6.716;2023-07-29T05:35:05;8.10;;;5.63;;
21386;SDS011;10854;45.922;6.716;2023-07-29T05:37:34;17.77;;;5.80;;
21386;SDS011;10854;45.922;6.716;2023-07-29T05:40:05;10.90;;;5.27;;
21386;SDS011;10854;45.922;6.716;2023-07-29T05:42:34;7.70;;;5.30;;
21386;SDS011;10854;45.922;6.716;2023-07-29T05:45:03;9.67;;;8.87;;
21386;SDS011;10854;45.922;6.716;2023-07-29T05:47:32;10.02;;;8.75;;
21386;SDS011;10854;45.922;6.716;2023-07-29T05:50:00;10.27;;;8.98;;
21386;SDS011;10854;45.922;6.716;2023-07-29T05:52:32;9.38;;;7.40;;
21386;SDS011;10854;45.922;6.716;2023-07-29T05:55:01;7.13;;;6.43;;
21386;SDS011;10854;45.922;6.716;2023-07-29T05:57:29;6.30;;;5.18;;
21386;SDS011;10854;45.922;6.716;2023-07-29T05:59:57;11.05;;;4.90;;
21386;SDS011;10854;45.922;6.716;2023-07-29T06:02:26;6.13;;;4.80;;
21386;SDS011;10854;45.922;6.716;2023-07-29T06:04:54;6.15;;;4.65;;
21386;SDS011;10854;45.922;6.716;2023-07-29T06:07:23;4.72;;;3.97;;
21386;SDS011;10854;45.922;6.716;2023-07-29T06:09:51;5.05;;;4.55;;
21386;SDS011;10854;45.922;6.716;2023-07-29T06:12:21;4.95;;;4.35;;
21386;SDS011;10854;45.922;6.716;2023-07-29T06:14:49;7.28;;;5.00;;
21386;SDS011;10854;45.922;6.716;2023-07-29T06:17:17;6.03;;;4.65;;
21386;SDS011;10854;45.922;6.716;2023-07-29T06:19:46;5.30;;;4.40;;
21386;SDS011;10854;45.922;6.716;2023-07-29T06:22:14;6.35;;;4.30;;
21386;SDS011;10854;45.922;6.716;2023-07-29T06:24:42;7.15;;;4.30;;
21386;SDS011;10854;45.922;6.716;2023-07-29T06:27:11;5.70;;;4.88;;
21386;SDS011;10854;45.922;6.716;2023-07-29T06:29:39;5.78;;;5.00;;
21386;SDS011;10854;45.922;6.716;2023-07-29T06:32:08;7.10;;;4.70;;
21386;SDS011;10854;45.922;6.716;2023-07-29T06:34:36;6.78;;;4.75;;
21386;SDS011;10854;45.922;6.716;2023-07-29T06:37:05;5.03;;;4.35;;
21386;SDS011;10854;45.922;6.716;2023-07-29T06:39:33;5.80;;;4.50;;
21386;SDS011;10854;45.922;6.716;2023-07-29T06:42:02;5.15;;;4.63;;
21386;SDS011;10854;45.922;6.716;2023-07-29T06:44:30;4.78;;;4.30;;
21386;SDS011;10854;45.922;6.716;2023-07-29T06:46:59;5.82;;;4.35;;
21386;SDS011;10854;45.922;6.716;2023-07-29T06:49:27;6.50;;;4.28;;
21386;SDS011;10854;45.922;6.716;2023-07-29T06:51:56;8.35;;;4.88;;
21386;SDS011;10854;45.922;6.716;2023-07-29T06:54:24;5.38;;;4.50;;
21386;SDS011;10854;45.922;6.716;2023-07-29T06:56:54;6.22;;;4.60;;
21386;SDS011;10854;45.922;6.716;2023-07-29T06:59:22;5.53;;;4.63;;
21386;SDS011;10854;45.922;6.716;2023-07-29T07:01:52;6.57;;;4.35;;
21386;SDS011;10854;45.922;6.716;2023-07-29T07:04:20;4.80;;;4.30;;
21386;SDS011;10854;45.922;6.716;2023-07-29T07:06:49;5.93;;;4.32;;
21386;SDS011;10854;45.922;6.716;2023-07-29T07:09:17;5.35;;;4.47;;
21386;SDS011;10854;45.922;6.716;2023-07-29T07:11:46;6.85;;;4.10;;
21386;SDS011;10854;45.922;6.716;2023-07-29T07:14:16;5.07;;;4.10;;
21386;SDS011;10854;45.922;6.716;2023-07-29T07:16:44;5.75;;;4.47;;
21386;SDS011;10854;45.922;6.716;2023-07-29T07:19:13;8.50;;;4.68;;
21386;SDS011;10854;45.922;6.716;2023-07-29T07:21:41;5.13;;;4.50;;
21386;SDS011;10854;45.922;6.716;2023-07-29T07:24:09;4.93;;;4.18;;
21386;SDS011;10854;45.922;6.716;2023-07-29T07:26:38;6.28;;;5.22;;
21386;SDS011;10854;45.922;6.716;2023-07-29T07:29:06;7.00;;;4.32;;
21386;SDS011;10854;45.922;6.716;2023-07-29T07:31:35;5.55;;;4.80;;
21386;SDS011;10854;45.922;6.716;2023-07-29T07:34:03;10.43;;;5.07;;
21386;SDS011;10854;45.922;6.716;2023-07-29T07:36:32;10.75;;;4.30;;
21386;SDS011;10854;45.922;6.716;2023-07-29T07:39:00;5.30;;;4.50;;
21386;SDS011;10854;45.922;6.716;2023-07-29T07:41:29;5.82;;;4.30;;
21386;SDS011;10854;45.922;6.716;2023-07-29T07:43:57;5.00;;;4.50;;
21386;SDS011;10854;45.922;6.716;2023-07-29T07:46:25;5.18;;;4.32;;
21386;SDS011;10854;45.922;6.716;2023-07-29T07:48:54;6.85;;;4.35;;
21386;SDS011;10854;45.922;6.716;2023-07-29T07:51:22;6.32;;;4.65;;
21386;SDS011;10854;45.922;6.716;2023-07-29T07:53:50;4.70;;;4.30;;
21386;SDS011;10854;45.922;6.716;2023-07-29T07:56:19;6.97;;;4.53;;
21386;SDS011;10854;45.922;6.716;2023-07-29T07:58:47;7.45;;;4.53;;
21386;SDS011;10854;45.922;6.716;2023-07-29T08:01:16;6.13;;;4.55;;
21386;SDS011;10854;45.922;6.716;2023-07-29T08:03:44;4.95;;;4.45;;
21386;SDS011;10854;45.922;6.716;2023-07-29T08:06:12;4.72;;;4.32;;
21386;SDS011;10854;45.922;6.716;2023-07-29T08:08:41;6.97;;;4.30;;
21386;SDS011;10854;45.922;6.716;2023-07-29T08:11:09;5.82;;;5.00;;
21386;SDS011;10854;45.922;6.716;2023-07-29T08:13:38;6.25;;;4.78;;
21386;SDS011;10854;45.922;6.716;2023-07-29T08:16:06;6.55;;;4.35;;
21386;SDS011;10854;45.922;6.716;2023-07-29T08:18:35;6.03;;;4.63;;
21386;SDS011;10854;45.922;6.716;2023-07-29T08:21:03;5.38;;;4.68;;
21386;SDS011;10854;45.922;6.716;2023-07-29T08:23:32;6.15;;;4.53;;
21386;SDS011;10854;45.922;6.716;2023-07-29T08:26:03;5.88;;;4.35;;
21386;SDS011;10854;45.922;6.716;2023-07-29T08:28:35;5.47;;;4.97;;
21386;SDS011;10854;45.922;6.716;2023-07-29T08:31:04;5.05;;;4.53;;
21386;SDS011;10854;45.922;6.716;2023-07-29T08:33:33;7.32;;;4.70;;
21386;SDS011;10854;45.922;6.716;2023-07-29T08:36:02;5.07;;;4.57;;
21386;SDS011;10854;45.922;6.716;2023-07-29T08:38:33;5.03;;;4.50;;
21386;SDS011;10854;45.922;6.716;2023-07-29T08:43:44;8.63;;;4.70;;
21386;SDS011;10854;45.922;6.716;2023-07-29T08:46:19;5.97;;;4.80;;
21386;SDS011;10854;45.922;6.716;2023-07-29T08:48:48;7.25;;;4.93;;
21386;SDS011;10854;45.922;6.716;2023-07-29T08:51:18;7.18;;;5.43;;
21386;SDS011;10854;45.922;6.716;2023-07-29T08:53:49;6.90;;;5.05;;
21386;SDS011;10854;45.922;6.716;2023-07-29T08:56:18;6.50;;;5.15;;
21386;SDS011;10854;45.922;6.716;2023-07-29T08:58:47;6.85;;;5.03;;
21386;SDS011;10854;45.922;6.716;2023-07-29T09:01:15;6.85;;;4.80;;
21386;SDS011;10854;45.922;6.716;2023-07-29T09:03:44;7.47;;;4.60;;
21386;SDS011;10854;45.922;6.716;2023-07-29T09:06:13;5.85;;;5.22;;
21386;SDS011;10854;45.922;6.716;2023-07-29T09:08:42;5.43;;;4.93;;
21386;SDS011;10854;45.922;6.716;2023-07-29T09:11:13;5.95;;;5.18;;
21386;SDS011;10854;45.922;6.716;2023-07-29T09:13:45;5.35;;;4.55;;
21386;SDS011;10854;45.922;6.716;2023-07-29T09:16:14;9.00;;;5.40;;
21386;SDS011;10854;45.922;6.716;2023-07-29T09:18:43;7.45;;;5.85;;
21386;SDS011;10854;45.922;6.716;2023-07-29T09:21:11;8.48;;;5.28;;
21386;SDS011;10854;45.922;6.716;2023-07-29T09:23:40;6.07;;;5.45;;
21386;SDS011;10854;45.922;6.716;2023-07-29T09:26:10;7.55;;;5.38;;
21386;SDS011;10854;45.922;6.716;2023-07-29T09:28:39;6.57;;;5.32;;
21386;SDS011;10854;45.922;6.716;2023-07-29T09:31:18;8.70;;;5.43;;
21386;SDS011;10854;45.922;6.716;2023-07-29T09:34:00;6.80;;;5.60;;
21386;SDS011;10854;45.922;6.716;2023-07-29T09:36:31;7.40;;;5.72;;
21386;SDS011;10854;45.922;6.716;2023-07-29T09:39:01;5.75;;;5.13;;
21386;SDS011;10854;45.922;6.716;2023-07-29T09:41:30;8.95;;;5.88;;
21386;SDS011;10854;45.922;6.716;2023-07-29T09:43:59;6.60;;;5.20;;
21386;SDS011;10854;45.922;6.716;2023-07-29T09:46:33;7.50;;;4.85;;
21386;SDS011;10854;45.922;6.716;2023-07-29T09:49:07;5.70;;;5.20;;
21386;SDS011;10854;45.922;6.716;2023-07-29T09:51:39;7.07;;;5.15;;
21386;SDS011;10854;45.922;6.716;2023-07-29T09:54:08;8.07;;;5.32;;
21386;SDS011;10854;45.922;6.716;2023-07-29T09:56:41;7.63;;;5.88;;
21386;SDS011;10854;45.922;6.716;2023-07-29T09:59:11;6.93;;;5.53;;
21386;SDS011;10854;45.922;6.716;2023-07-29T10:06:26;6.17;;;5.57;;
21386;SDS011;10854;45.922;6.716;2023-07-29T10:08:55;6.17;;;5.53;;
21386;SDS011;10854;45.922;6.716;2023-07-29T10:11:23;6.70;;;6.00;;
21386;SDS011;10854;45.922;6.716;2023-07-29T10:13:52;8.50;;;5.78;;
21386;SDS011;10854;45.922;6.716;2023-07-29T10:16:30;6.18;;;5.57;;
21386;SDS011;10854;45.922;6.716;2023-07-29T10:19:00;5.87;;;5.10;;
21386;SDS011;10854;45.922;6.716;2023-07-29T10:21:29;6.60;;;5.30;;
21386;SDS011;10854;45.922;6.716;2023-07-29T10:23:58;6.33;;;5.43;;
21386;SDS011;10854;45.922;6.716;2023-07-29T10:26:32;6.15;;;5.50;;
21386;SDS011;10854;45.922;6.716;2023-07-29T10:29:02;6.63;;;5.22;;
21386;SDS011;10854;45.922;6.716;2023-07-29T10:31:36;7.18;;;5.13;;
21386;SDS011;10854;45.922;6.716;2023-07-29T10:34:06;5.65;;;5.05;;
21386;SDS011;10854;45.922;6.716;2023-07-29T10:36:35;6.32;;;4.93;;
21386;SDS011;10854;45.922;6.716;2023-07-29T10:39:05;7.15;;;5.13;;
21386;SDS011;10854;45.922;6.716;2023-07-29T10:47:13;7.15;;;5.68;;
21386;SDS011;10854;45.922;6.716;2023-07-29T10:49:46;6.10;;;5.38;;
21386;SDS011;10854;45.922;6.716;2023-07-29T10:52:27;8.30;;;6.60;;
21386;SDS011;10854;45.922;6.716;2023-07-29T10:55:02;7.90;;;7.10;;
21386;SDS011;10854;45.922;6.716;2023-07-29T10:57:50;8.00;;;5.93;;
21386;SDS011;10854;45.922;6.716;2023-07-29T11:00:19;6.03;;;5.43;;
21386;SDS011;10854;45.922;6.716;2023-07-29T11:03:01;6.28;;;5.68;;
21386;SDS011;10854;45.922;6.716;2023-07-29T11:05:51;8.45;;;5.93;;
21386;SDS011;10854;45.922;6.716;2023-07-29T11:10:58;8.10;;;6.70;;
21386;SDS011;10854;45.922;6.716;2023-07-29T11:13:28;11.80;;;9.48;;
21386;SDS011;10854;45.922;6.716;2023-07-29T11:15:58;12.48;;;11.18;;
21386;SDS011;10854;45.922;6.716;2023-07-29T11:18:28;8.30;;;6.93;;
21386;SDS011;10854;45.922;6.716;2023-07-29T11:20:58;7.65;;;5.65;;
21386;SDS011;10854;45.922;6.716;2023-07-29T11:23:28;8.40;;;5.70;;
21386;SDS011;10854;45.922;6.716;2023-07-29T11:25:58;6.97;;;5.67;;
21386;SDS011;10854;45.922;6.716;2023-07-29T11:28:27;6.27;;;4.93;;
21386;SDS011;10854;45.922;6.716;2023-07-29T11:30:56;6.50;;;5.47;;
21386;SDS011;10854;45.922;6.716;2023-07-29T11:33:25;5.80;;;4.93;;
21386;SDS011;10854;45.922;6.716;2023-07-29T11:35:56;6.77;;;5.57;;
21386;SDS011;10854;45.922;6.716;2023-07-29T11:38:24;8.53;;;6.00;;
21386;SDS011;10854;45.922;6.716;2023-07-29T11:40:54;8.87;;;5.50;;
21386;SDS011;10854;45.922;6.716;2023-07-29T11:43:27;6.73;;;5.63;;
21386;SDS011;10854;45.922;6.716;2023-07-29T11:45:55;7.07;;;5.40;;
21386;SDS011;10854;45.922;6.716;2023-07-29T11:48:31;6.40;;;5.60;;
21386;SDS011;10854;45.922;6.716;2023-07-29T11:51:01;6.07;;;5.47;;
21386;SDS011;10854;45.922;6.716;2023-07-29T11:53:31;8.67;;;5.37;;
21386;SDS011;10854;45.922;6.716;2023-07-29T11:55:59;6.40;;;5.13;;
21386;SDS011;10854;45.922;6.716;2023-07-29T11:58:28;6.57;;;5.80;;
21386;SDS011;10854;45.922;6.716;2023-07-29T12:00:57;8.97;;;8.07;;
21386;SDS011;10854;45.922;6.716;2023-07-29T12:03:25;9.60;;;8.27;;
21386;SDS011;10854;45.922;6.716;2023-07-29T12:05:54;6.43;;;5.77;;
21386;SDS011;10854;45.922;6.716;2023-07-29T12:08:23;5.50;;;5.00;;
21386;SDS011;10854;45.922;6.716;2023-07-29T12:10:52;5.50;;;5.00;;
21386;SDS011;10854;45.922;6.716;2023-07-29T12:13:23;6.40;;;5.57;;
21386;SDS011;10854;45.922;6.716;2023-07-29T12:15:52;6.50;;;5.80;;
21386;SDS011;10854;45.922;6.716;2023-07-29T12:18:30;7.23;;;6.00;;
21386;SDS011;10854;45.922;6.716;2023-07-29T12:21:00;6.77;;;6.00;;
21386;SDS011;10854;45.922;6.716;2023-07-29T12:23:29;7.07;;;6.17;;
21386;SDS011;10854;45.922;6.716;2023-07-29T12:25:59;7.23;;;6.33;;
21386;SDS011;10854;45.922;6.716;2023-07-29T12:28:28;6.67;;;6.07;;
21386;SDS011;10854;45.922;6.716;2023-07-29T12:30:57;7.90;;;7.10;;
21386;SDS011;10854;45.922;6.716;2023-07-29T12:33:37;10.17;;;9.13;;
21386;SDS011;10854;45.922;6.716;2023-07-29T12:36:06;8.50;;;6.83;;
21386;SDS011;10854;45.922;6.716;2023-07-29T12:38:35;11.50;;;8.10;;
21386;SDS011;10854;45.922;6.716;2023-07-29T12:41:04;8.17;;;6.70;;
21386;SDS011;10854;45.922;6.716;2023-07-29T12:43:33;8.10;;;7.30;;
21386;SDS011;10854;45.922;6.716;2023-07-29T12:46:02;7.67;;;6.87;;
21386;SDS011;10854;45.922;6.716;2023-07-29T12:48:31;9.63;;;7.40;;
21386;SDS011;10854;45.922;6.716;2023-07-29T12:50:59;7.90;;;6.47;;
21386;SDS011;10854;45.922;6.716;2023-07-29T12:53:27;7.40;;;6.70;;
21386;SDS011;10854;45.922;6.716;2023-07-29T12:55:56;7.33;;;6.63;;
21386;SDS011;10854;45.922;6.716;2023-07-29T12:58:27;7.47;;;6.77;;
21386;SDS011;10854;45.922;6.716;2023-07-29T13:00:55;7.67;;;6.50;;
21386;SDS011;10854;45.922;6.716;2023-07-29T13:03:24;9.83;;;7.33;;
21386;SDS011;10854;45.922;6.716;2023-07-29T13:05:53;8.47;;;7.40;;
21386;SDS011;10854;45.922;6.716;2023-07-29T13:08:21;8.20;;;7.20;;
21386;SDS011;10854;45.922;6.716;2023-07-29T13:10:50;8.13;;;7.30;;
21386;SDS011;10854;45.922;6.716;2023-07-29T13:13:19;7.80;;;7.00;;
21386;SDS011;10854;45.922;6.716;2023-07-29T13:15:48;8.17;;;7.37;;
21386;SDS011;10854;45.922;6.716;2023-07-29T13:18:16;9.77;;;7.53;;
21386;SDS011;10854;45.922;6.716;2023-07-29T13:20:45;11.07;;;7.27;;
21386;SDS011;10854;45.922;6.716;2023-07-29T13:23:16;8.53;;;7.67;;
21386;SDS011;10854;45.922;6.716;2023-07-29T13:25:45;8.47;;;7.03;;
21386;SDS011;10854;45.922;6.716;2023-07-29T13:28:13;10.23;;;7.87;;
21386;SDS011;10854;45.922;6.716;2023-07-29T13:30:42;13.13;;;8.57;;
21386;SDS011;10854;45.922;6.716;2023-07-29T13:33:10;10.93;;;8.67;;
21386;SDS011;10854;45.922;6.716;2023-07-29T13:35:39;9.47;;;8.33;;
21386;SDS011;10854;45.922;6.716;2023-07-29T13:38:07;10.20;;;7.40;;
21386;SDS011;10854;45.922;6.716;2023-07-29T13:40:36;8.90;;;7.73;;
21386;SDS011;10854;45.922;6.716;2023-07-29T13:43:04;11.17;;;8.93;;
21386;SDS011;10854;45.922;6.716;2023-07-29T13:45:33;12.70;;;9.30;;
21386;SDS011;10854;45.922;6.716;2023-07-29T13:48:02;11.03;;;8.93;;
21386;SDS011;10854;45.922;6.716;2023-07-29T13:50:31;10.80;;;9.70;;
21386;SDS011;10854;45.922;6.716;2023-07-29T13:52:59;12.60;;;9.47;;
21386;SDS011;10854;45.922;6.716;2023-07-29T13:55:28;10.97;;;9.43;;
21386;SDS011;10854;45.922;6.716;2023-07-29T13:57:57;10.83;;;8.77;;
21386;SDS011;10854;45.922;6.716;2023-07-29T14:00:25;11.20;;;8.97;;
21386;SDS011;10854;45.922;6.716;2023-07-29T14:02:53;9.73;;;8.70;;
21386;SDS011;10854;45.922;6.716;2023-07-29T14:05:22;10.07;;;9.17;;
21386;SDS011;10854;45.922;6.716;2023-07-29T14:07:51;9.93;;;9.03;;
21386;SDS011;10854;45.922;6.716;2023-07-29T14:10:19;10.77;;;9.67;;
21386;SDS011;10854;45.922;6.716;2023-07-29T14:12:49;10.77;;;9.47;;
21386;SDS011;10854;45.922;6.716;2023-07-29T14:15:18;11.27;;;9.80;;
21386;SDS011;10854;45.922;6.716;2023-07-29T14:17:46;11.40;;;9.80;;
21386;SDS011;10854;45.922;6.716;2023-07-29T14:20:15;12.43;;;10.60;;
21386;SDS011;10854;45.922;6.716;2023-07-29T14:22:44;12.33;;;11.03;;
21386;SDS011;10854;45.922;6.716;2023-07-29T14:25:12;11.20;;;10.10;;
21386;SDS011;10854;45.922;6.716;2023-07-29T14:27:41;15.60;;;11.43;;
21386;SDS011;10854;45.922;6.716;2023-07-29T14:30:11;15.03;;;11.53;;
21386;SDS011;10854;45.922;6.716;2023-07-29T14:32:39;12.73;;;11.53;;
21386;SDS011;10854;45.922;6.716;2023-07-29T14:35:08;13.67;;;11.67;;
21386;SDS011;10854;45.922;6.716;2023-07-29T14:37:36;12.30;;;10.07;;
21386;SDS011;10854;45.922;6.716;2023-07-29T14:40:06;10.73;;;9.73;;
21386;SDS011;10854;45.922;6.716;2023-07-29T14:42:35;12.03;;;10.83;;
21386;SDS011;10854;45.922;6.716;2023-07-29T14:45:03;11.63;;;10.33;;
21386;SDS011;10854;45.922;6.716;2023-07-29T14:47:32;12.87;;;11.57;;
21386;SDS011;10854;45.922;6.716;2023-07-29T14:50:02;12.30;;;11.03;;
21386;SDS011;10854;45.922;6.716;2023-07-29T14:52:30;12.17;;;10.97;;
21386;SDS011;10854;45.922;6.716;2023-07-29T14:54:59;14.23;;;11.50;;
21386;SDS011;10854;45.922;6.716;2023-07-29T14:57:27;14.37;;;11.43;;
21386;SDS011;10854;45.922;6.716;2023-07-29T14:59:56;12.07;;;10.87;;
21386;SDS011;10854;45.922;6.716;2023-07-29T15:02:24;12.67;;;11.13;;
21386;SDS011;10854;45.922;6.716;2023-07-29T15:04:53;13.97;;;10.27;;
21386;SDS011;10854;45.922;6.716;2023-07-29T15:07:21;12.90;;;11.50;;
21386;SDS011;10854;45.922;6.716;2023-07-29T15:09:50;14.67;;;12.63;;
21386;SDS011;10854;45.922;6.716;2023-07-29T15:12:18;15.17;;;11.97;;
21386;SDS011;10854;45.922;6.716;2023-07-29T15:14:46;14.93;;;11.83;;
21386;SDS011;10854;45.922;6.716;2023-07-29T15:17:15;13.33;;;11.33;;